createdAt,value
2022-10-26T00:01:14.661Z,101200.19
2022-10-26T00:03:44.304Z,101197.59
2022-10-26T00:06:20.363Z,101187.91
2022-10-26T00:08:48.323Z,101183.50
2022-10-26T00:11:16.044Z,101189.69
2022-10-26T00:13:43.440Z,101180.03
2022-10-26T00:16:17.291Z,101173.88
2022-10-26T00:18:45.791Z,101173.03
2022-10-26T00:21:13.272Z,101177.41
2022-10-26T00:23:41.031Z,101158.06
2022-10-26T00:26:08.716Z,101165.09
2022-10-26T00:28:36.435Z,101174.75
2022-10-26T00:31:11.474Z,101172.16
2022-10-26T00:33:38.528Z,101187.97
2022-10-26T00:36:05.890Z,101187.94
2022-10-26T00:38:32.909Z,101175.66
2022-10-26T00:40:59.955Z,101169.50
2022-10-26T00:43:29.849Z,101180.03
2022-10-26T00:45:58.777Z,101175.66
2022-10-26T00:48:35.470Z,101164.22
2022-10-26T00:51:13.337Z,101165.09
2022-10-26T00:53:40.591Z,101162.47
2022-10-26T00:56:08.294Z,101151.91
2022-10-26T00:58:36.613Z,101163.34
2022-10-26T01:01:03.984Z,101155.41
2022-10-26T01:03:32.945Z,101156.31
2022-10-26T01:06:00.263Z,101163.34
2022-10-26T01:08:28.951Z,101169.50
2022-10-26T01:10:58.483Z,101158.06
2022-10-26T01:13:32.542Z,101143.13
2022-10-26T01:16:05.392Z,101144.00
2022-10-26T01:19:01.394Z,101141.38
2022-10-26T01:21:51.587Z,101138.72
2022-10-26T01:24:45.291Z,101134.34
2022-10-26T01:27:39.693Z,101125.56
2022-10-26T01:30:45.152Z,101125.56
2022-10-26T01:33:30.418Z,101124.69
2022-10-26T01:36:19.673Z,101122.91
2022-10-26T01:39:08.909Z,101114.16
2022-10-26T01:41:56.224Z,101115.00
2022-10-26T01:44:57.679Z,101111.50
2022-10-26T01:47:26.232Z,101115.88
2022-10-26T01:49:58.299Z,101115.00
2022-10-26T01:52:25.899Z,101111.50
2022-10-26T01:55:03.549Z,101115.88
2022-10-26T01:57:35.241Z,101114.13
2022-10-26T02:00:13.756Z,101105.34
2022-10-26T02:03:17.179Z,101113.25
2022-10-26T02:05:46.868Z,101108.00
2022-10-26T02:09:07.466Z,101107.09
2022-10-26T02:11:52.712Z,101102.72
2022-10-26T02:14:51.087Z,101094.81
2022-10-26T02:18:16.113Z,101092.16
2022-10-26T02:20:50.776Z,101094.81
2022-10-26T02:23:18.900Z,101088.66
2022-10-26T02:25:55.516Z,101089.53
2022-10-26T02:28:34.853Z,101082.53
2022-10-26T02:31:05.736Z,101087.75
2022-10-26T02:33:40.524Z,101080.75
2022-10-26T02:36:13.065Z,101082.50
2022-10-26T02:38:41.685Z,101078.09
2022-10-26T02:41:21.184Z,101076.34
2022-10-26T02:43:57.484Z,101068.44
2022-10-26T02:46:28.173Z,101076.38
2022-10-26T02:48:56.537Z,101072.84
2022-10-26T02:51:35.302Z,101072.84
2022-10-26T02:54:52.692Z,101071.97
2022-10-26T02:57:40.253Z,101066.72
2022-10-26T03:02:55.076Z,101067.56
2022-10-26T03:05:27.732Z,101071.97
2022-10-26T03:07:55.922Z,101068.47
2022-10-26T03:10:23.720Z,101068.44
2022-10-26T03:12:51.102Z,101071.09
2022-10-26T03:15:18.379Z,101067.56
2022-10-26T03:17:45.596Z,101062.28
2022-10-26T03:20:13.470Z,101058.75
2022-10-26T03:22:40.406Z,101063.16
2022-10-26T03:27:36.197Z,101068.44
2022-10-26T03:30:03.898Z,101064.91
2022-10-26T03:32:30.837Z,101073.69
2022-10-26T03:34:57.743Z,101071.94
2022-10-26T03:37:25.149Z,101070.19
2022-10-26T03:39:52.291Z,101073.69
2022-10-26T03:42:19.239Z,101064.03
2022-10-26T03:44:47.215Z,101057.88
2022-10-26T03:47:14.259Z,101064.91
2022-10-26T03:49:41.177Z,101067.56
2022-10-26T03:52:08.548Z,101063.19
2022-10-26T03:54:35.606Z,101064.94
2022-10-26T03:57:02.585Z,101056.16
2022-10-26T03:59:29.939Z,101051.75
2022-10-26T04:01:58.004Z,101058.78
2022-10-26T04:04:25.855Z,101058.78
2022-10-26T04:06:53.118Z,101055.28
2022-10-26T04:09:20.342Z,101053.53
2022-10-26T04:11:47.340Z,101054.38
2022-10-26T04:14:14.672Z,101050.84
2022-10-26T04:16:41.744Z,101048.25
2022-10-26T04:19:08.747Z,101061.41
2022-10-26T04:21:35.701Z,101057.91
2022-10-26T04:24:02.901Z,101054.38
2022-10-26T04:26:29.846Z,101056.13
2022-10-26T04:28:56.994Z,101057.88
2022-10-26T04:31:23.932Z,101053.47
2022-10-26T04:33:51.015Z,101049.09
2022-10-26T04:36:18.006Z,101054.34
2022-10-26T04:38:45.004Z,101049.94
2022-10-26T04:41:11.967Z,101053.44
2022-10-26T04:43:38.884Z,101060.47
2022-10-26T04:46:06.030Z,101057.84
2022-10-26T04:48:33.172Z,101056.94
2022-10-26T04:51:01.271Z,101056.06
2022-10-26T04:53:28.722Z,101054.34
2022-10-26T04:56:00.971Z,101053.41
2022-10-26T04:58:28.806Z,101056.91
2022-10-26T05:00:56.229Z,101053.41
2022-10-26T05:03:23.308Z,101051.66
2022-10-26T05:05:51.586Z,101054.28
2022-10-26T05:08:18.568Z,101052.50
2022-10-26T05:10:50.367Z,101057.78
2022-10-26T05:13:17.454Z,101056.91
2022-10-26T05:15:47.537Z,101058.66
2022-10-26T05:18:14.563Z,101063.94
2022-10-26T05:20:41.508Z,101062.16
2022-10-26T05:23:12.256Z,101074.47
2022-10-26T05:25:39.498Z,101077.13
2022-10-26T05:28:11.677Z,101071.81
2022-10-26T05:30:40.579Z,101074.47
2022-10-26T05:33:09.832Z,101074.44
2022-10-26T05:35:37.560Z,101077.94
2022-10-26T05:38:17.530Z,101075.31
2022-10-26T05:40:52.277Z,101077.06
2022-10-26T05:43:21.731Z,101072.66
2022-10-26T05:45:51.412Z,101070.03
2022-10-26T05:48:18.426Z,101070.03
2022-10-26T05:50:45.806Z,101064.78
2022-10-26T05:53:13.118Z,101070.91
2022-10-26T05:55:40.758Z,101080.59
2022-10-26T05:58:15.536Z,101080.56
2022-10-26T06:00:50.328Z,101081.44
2022-10-26T06:03:38.053Z,101078.78
2022-10-26T06:06:07.561Z,101084.97
2022-10-26T06:08:35.000Z,101092.91
2022-10-26T06:11:03.192Z,101100.81
2022-10-26T06:13:32.630Z,101099.03
2022-10-26T06:16:42.864Z,101099.91
2022-10-26T06:19:34.534Z,101101.66
2022-10-26T06:22:44.985Z,101102.53
2022-10-26T06:25:51.815Z,101101.66
2022-10-26T06:28:55.825Z,101084.97
2022-10-26T06:31:24.175Z,101092.88
2022-10-26T06:33:58.118Z,101094.63
2022-10-26T06:36:28.733Z,101089.34
2022-10-26T06:39:10.583Z,101089.31
2022-10-26T06:41:39.458Z,101082.31
2022-10-26T06:44:12.445Z,101082.28
2022-10-26T06:47:09.829Z,101087.59
2022-10-26T06:49:56.025Z,101086.66
2022-10-26T06:53:09.922Z,101082.19
2022-10-26T06:55:44.527Z,101081.31
2022-10-26T06:58:19.443Z,101075.16
2022-10-26T07:00:50.500Z,101076.94
2022-10-26T07:03:17.771Z,101076.91
2022-10-26T07:05:45.475Z,101090.13
2022-10-26T07:08:14.329Z,101089.25
2022-10-26T07:10:42.452Z,101094.56
2022-10-26T07:13:10.991Z,101092.81
2022-10-26T07:15:39.422Z,101106.00
2022-10-26T07:18:08.370Z,101108.69
2022-10-26T07:20:41.438Z,101114.78
2022-10-26T07:23:12.686Z,101105.97
2022-10-26T07:25:40.669Z,101118.25
2022-10-26T07:28:10.529Z,101122.63
2022-10-26T07:30:39.983Z,101124.38
2022-10-26T07:33:14.093Z,101129.63
2022-10-26T07:35:41.510Z,101119.03
2022-10-26T07:38:09.188Z,101126.03
2022-10-26T07:40:38.352Z,101129.53
2022-10-26T07:43:06.118Z,101131.25
2022-10-26T07:45:34.098Z,101153.25
2022-10-26T07:48:01.450Z,101164.63
2022-10-26T07:50:28.906Z,101176.03
2022-10-26T07:52:56.267Z,101170.66
2022-10-26T07:55:25.874Z,101157.34
2022-10-26T07:57:54.784Z,101159.06
2022-10-26T08:00:22.929Z,101157.22
2022-10-26T08:02:50.101Z,101160.66
2022-10-26T08:05:17.850Z,101166.72
2022-10-26T08:07:45.722Z,101173.69
2022-10-26T08:10:15.024Z,101176.25
2022-10-26T08:12:43.715Z,101178.72
2022-10-26T08:15:11.635Z,101178.72
2022-10-26T08:17:38.754Z,101177.34
2022-10-26T08:20:07.010Z,101180.56
2022-10-26T08:22:34.562Z,101188.31
2022-10-26T08:25:01.914Z,101187.34
2022-10-26T08:27:28.939Z,101188.13
2022-10-26T08:29:55.878Z,101191.56
2022-10-26T08:32:22.865Z,101185.28
2022-10-26T08:34:49.896Z,101186.09
2022-10-26T08:37:17.251Z,101196.56
2022-10-26T08:39:44.504Z,101185.84
2022-10-26T08:42:28.060Z,101190.97
2022-10-26T08:45:17.839Z,101197.88
2022-10-26T08:47:52.335Z,101200.38
2022-10-26T08:50:45.296Z,101203.84
2022-10-26T08:53:33.350Z,101195.56
2022-10-26T08:56:18.304Z,101184.75
2022-10-26T08:59:28.140Z,101174.75
2022-10-26T09:01:56.028Z,101174.59
2022-10-26T09:04:28.800Z,101184.13
2022-10-26T09:07:27.495Z,101196.34
2022-10-26T09:10:32.025Z,101198.84
2022-10-26T09:13:09.931Z,101198.66
2022-10-26T09:16:08.111Z,101203.84
2022-10-26T09:19:27.787Z,101209.88
2022-10-26T09:22:43.573Z,101219.44
2022-10-26T09:25:24.346Z,101227.22
2022-10-26T09:27:59.188Z,101240.38
2022-10-26T09:30:26.206Z,101238.41
2022-10-26T09:33:03.194Z,101241.78
2022-10-26T09:36:03.326Z,101243.22
2022-10-26T09:38:44.797Z,101252.00
2022-10-26T09:41:33.052Z,101257.06
2022-10-26T09:44:43.502Z,101263.84
2022-10-26T09:47:34.358Z,101265.50
2022-10-26T09:50:35.581Z,101250.25
2022-10-26T09:53:03.645Z,101259.31
2022-10-26T09:55:33.149Z,101261.91
2022-10-26T09:58:06.349Z,101265.50
2022-10-26T10:03:02.642Z,101277.06
2022-10-26T10:05:50.232Z,101282.31
2022-10-26T10:08:27.489Z,101281.38
2022-10-26T10:11:13.869Z,101282.16
2022-10-26T10:13:44.510Z,101299.81
2022-10-26T10:16:22.212Z,101300.63
2022-10-26T10:19:00.424Z,101305.69
2022-10-26T10:21:44.886Z,101308.25
2022-10-26T10:24:37.097Z,101311.47
2022-10-26T10:27:13.266Z,101318.41
2022-10-26T10:29:46.731Z,101323.63
2022-10-26T10:32:35.330Z,101333.25
2022-10-26T10:35:30.026Z,101326.78
2022-10-26T10:37:57.888Z,101328.38
2022-10-26T10:40:31.518Z,101337.09
2022-10-26T10:43:13.373Z,101347.03
2022-10-26T10:45:41.645Z,101338.91
2022-10-26T10:48:20.663Z,101348.53
2022-10-26T10:51:20.047Z,101343.09
2022-10-26T10:53:51.600Z,101348.47
2022-10-26T10:56:42.378Z,101350.03
2022-10-26T10:59:35.711Z,101347.91
2022-10-26T11:02:34.667Z,101357.56
2022-10-26T11:05:35.787Z,101360.72
2022-10-26T11:08:14.441Z,101369.03
2022-10-26T11:10:58.315Z,101360.94
2022-10-26T11:13:33.707Z,101367.03
2022-10-26T11:16:07.411Z,101355.38
2022-10-26T11:19:22.407Z,101369.50
2022-10-26T11:21:56.039Z,101376.59
2022-10-26T11:24:41.514Z,101378.94
2022-10-26T11:27:25.878Z,101373.16
2022-10-26T11:30:21.258Z,101383.59
2022-10-26T11:32:59.580Z,101379.84
2022-10-26T11:35:37.705Z,101393.66
2022-10-26T11:38:46.577Z,101387.69
2022-10-26T11:41:29.131Z,101393.66
2022-10-26T11:44:11.189Z,101390.13
2022-10-26T11:47:01.411Z,101381.66
2022-10-26T11:50:12.181Z,101395.06
2022-10-26T11:52:57.872Z,101398.50
2022-10-26T11:55:24.880Z,101392.16
2022-10-26T11:57:54.482Z,101396.41
2022-10-26T12:00:23.156Z,101395.72
2022-10-26T12:03:09.502Z,101394.06
2022-10-26T12:06:06.103Z,101395.00
2022-10-26T12:08:49.975Z,101398.72
2022-10-26T12:11:36.636Z,101396.09
2022-10-26T12:14:31.247Z,101404.88
2022-10-26T12:18:57.470Z,101412.31
2022-10-26T12:21:30.372Z,101412.25
2022-10-26T12:24:37.846Z,101419.25
2022-10-26T12:27:06.421Z,101425.16
2022-10-26T12:29:49.177Z,101412.47
2022-10-26T12:32:34.245Z,101422.25
2022-10-26T12:35:25.522Z,101421.34
2022-10-26T12:37:52.917Z,101415.94
2022-10-26T12:40:39.777Z,101419.56
2022-10-26T12:43:15.916Z,101432.81
2022-10-26T12:45:47.426Z,101432.81
2022-10-26T12:48:49.055Z,101430.94
2022-10-26T12:51:21.908Z,101431.84
2022-10-26T12:53:58.277Z,101423.00
2022-10-26T12:56:45.738Z,101419.50
2022-10-26T12:59:46.324Z,101423.97
2022-10-26T13:02:47.959Z,101434.75
2022-10-26T13:05:43.050Z,101436.53
2022-10-26T13:08:12.729Z,101426.72
2022-10-26T13:11:01.616Z,101423.19
2022-10-26T13:13:31.923Z,101435.63
2022-10-26T13:16:00.561Z,101433.88
2022-10-26T13:18:28.026Z,101429.44
2022-10-26T13:21:11.625Z,101443.75
2022-10-26T13:23:42.699Z,101439.38
2022-10-26T13:26:17.909Z,101448.16
2022-10-26T13:28:54.778Z,101449.09
2022-10-26T13:31:34.572Z,101451.59
2022-10-26T13:34:21.246Z,101456.06
2022-10-26T13:37:31.489Z,101469.47
2022-10-26T13:40:00.286Z,101463.28
2022-10-26T13:42:37.342Z,101468.63
2022-10-26T13:45:14.504Z,101463.34
2022-10-26T13:48:38.963Z,101459.03
2022-10-26T13:51:23.433Z,101457.34
2022-10-26T13:54:10.304Z,101455.78
2022-10-26T13:57:12.882Z,101455.78
2022-10-26T13:59:44.718Z,101462.06
2022-10-26T14:02:25.963Z,101456.59
2022-10-26T14:05:05.490Z,101455.66
2022-10-26T14:07:44.503Z,101455.66
2022-10-26T14:10:36.527Z,101469.84
2022-10-26T14:13:09.144Z,101473.31
2022-10-26T14:15:36.972Z,101476.00
2022-10-26T14:18:06.534Z,101469.78
2022-10-26T14:20:33.665Z,101476.00
2022-10-26T14:23:00.756Z,101486.69
2022-10-26T14:25:42.331Z,101496.56
2022-10-26T14:28:31.976Z,101500.13
2022-10-26T14:31:23.555Z,101508.25
2022-10-26T14:33:52.471Z,101512.78
2022-10-26T14:36:26.247Z,101510.09
2022-10-26T14:39:01.042Z,101508.31
2022-10-26T14:41:29.418Z,101518.16
2022-10-26T14:43:59.986Z,101520.81
2022-10-26T14:46:33.564Z,101529.69
2022-10-26T14:49:02.573Z,101532.25
2022-10-26T14:51:35.882Z,101535.69
2022-10-26T14:54:04.330Z,101543.78
2022-10-26T14:56:41.004Z,101538.47
2022-10-26T14:59:21.335Z,101558.06
2022-10-26T15:01:58.573Z,101551.19
2022-10-26T15:04:28.541Z,101551.38
2022-10-26T15:07:08.830Z,101545.34
2022-10-26T15:09:43.083Z,101544.53
2022-10-26T15:12:33.998Z,101544.75
2022-10-26T15:15:30.138Z,101561.09
2022-10-26T15:17:59.747Z,101561.31
2022-10-26T15:20:29.736Z,101567.69
2022-10-26T15:23:02.729Z,101571.38
2022-10-26T15:25:33.699Z,101578.59
2022-10-26T15:28:40.108Z,101580.44
2022-10-26T15:31:27.104Z,101585.03
2022-10-26T15:33:54.058Z,101590.38
2022-10-26T15:36:26.386Z,101592.94
2022-10-26T15:38:55.583Z,101598.38
2022-10-26T15:41:44.575Z,101598.47
2022-10-26T15:44:22.423Z,101604.06
2022-10-26T15:46:50.138Z,101605.97
2022-10-26T15:49:21.319Z,101607.75
2022-10-26T15:51:49.489Z,101608.66
2022-10-26T15:54:16.667Z,101604.28
2022-10-26T15:56:43.980Z,101604.53
2022-10-26T15:59:16.860Z,101610.13
2022-10-26T16:01:44.207Z,101603.34
2022-10-26T16:04:12.395Z,101605.38
2022-10-26T16:06:42.010Z,101610.09
2022-10-26T16:09:18.346Z,101617.44
2022-10-26T16:11:45.678Z,101621.16
2022-10-26T16:14:13.135Z,101624.91
2022-10-26T16:16:41.339Z,101622.44
2022-10-26T16:19:29.962Z,101627.03
2022-10-26T16:21:58.599Z,101624.72
2022-10-26T16:24:27.447Z,101628.50
2022-10-26T16:26:54.693Z,101638.50
2022-10-26T16:29:21.952Z,101645.69
2022-10-26T16:31:49.127Z,101645.94
2022-10-26T16:34:16.232Z,101644.34
2022-10-26T16:36:43.179Z,101647.19
2022-10-26T16:39:12.931Z,101650.00
2022-10-26T16:41:39.915Z,101651.94
2022-10-26T16:44:07.084Z,101657.38
2022-10-26T16:46:34.418Z,101670.78
2022-10-26T16:49:01.646Z,101677.06
2022-10-26T16:51:29.143Z,101682.50
2022-10-26T16:53:57.321Z,101680.81
2022-10-26T16:56:30.149Z,101680.03
2022-10-26T16:58:57.438Z,101680.13
2022-10-26T17:01:25.465Z,101686.41
2022-10-26T17:03:53.242Z,101689.13
2022-10-26T17:06:21.037Z,101692.72
2022-10-26T17:08:48.167Z,101691.91
2022-10-26T17:11:21.013Z,101698.19
2022-10-26T17:13:55.265Z,101698.25
2022-10-26T17:16:24.574Z,101706.25
2022-10-26T17:18:52.693Z,101701.91
2022-10-26T17:21:31.831Z,101710.75
2022-10-26T17:23:59.805Z,101709.97
2022-10-26T17:26:27.544Z,101709.97
2022-10-26T17:28:57.390Z,101713.56
2022-10-26T17:31:25.770Z,101717.16
2022-10-26T17:33:53.369Z,101715.44
2022-10-26T17:36:23.727Z,101734.03
2022-10-26T17:38:56.040Z,101733.19
2022-10-26T17:41:24.128Z,101735.00
2022-10-26T17:43:51.500Z,101742.09
2022-10-26T17:46:26.929Z,101742.13
2022-10-26T17:48:59.492Z,101745.66
2022-10-26T17:51:28.721Z,101744.81
2022-10-26T17:53:57.195Z,101752.78
2022-10-26T17:56:27.760Z,101765.19
2022-10-26T17:58:58.192Z,101773.19
2022-10-26T18:01:26.690Z,101774.97
2022-10-26T18:03:54.829Z,101769.72
2022-10-26T18:06:22.562Z,101774.16
2022-10-26T18:08:50.055Z,101778.56
2022-10-26T18:11:26.933Z,101774.22
2022-10-26T18:13:58.337Z,101789.22
2022-10-26T18:16:27.963Z,101794.56
2022-10-26T18:19:04.704Z,101790.16
2022-10-26T18:21:37.507Z,101787.53
2022-10-26T18:24:12.060Z,101798.16
2022-10-26T18:26:39.180Z,101799.03
2022-10-26T18:29:06.649Z,101806.09
2022-10-26T18:31:37.818Z,101807.00
2022-10-26T18:34:06.597Z,101817.59
2022-10-26T18:39:08.217Z,101824.69
2022-10-26T18:41:35.304Z,101820.31
2022-10-26T18:44:02.367Z,101824.72
2022-10-26T18:46:33.713Z,101830.88
2022-10-26T18:49:01.220Z,101828.25
2022-10-26T18:51:34.706Z,101829.16
2022-10-26T18:54:02.386Z,101825.63
2022-10-26T18:56:29.973Z,101823.88
2022-10-26T18:58:58.992Z,101826.53
2022-10-26T19:01:35.563Z,101822.09
2022-10-26T19:04:08.286Z,101835.34
2022-10-26T19:06:43.132Z,101830.97
2022-10-26T19:09:10.379Z,101833.63
2022-10-26T19:11:38.216Z,101843.34
2022-10-26T19:14:05.479Z,101839.81
2022-10-26T19:16:45.240Z,101840.69
2022-10-26T19:19:16.307Z,101844.25
2022-10-26T19:21:45.935Z,101842.50
2022-10-26T19:24:23.348Z,101843.38
2022-10-26T19:26:51.549Z,101847.81
2022-10-26T19:29:19.358Z,101848.72
2022-10-26T19:31:48.626Z,101845.16
2022-10-26T19:34:18.680Z,101848.69
2022-10-26T19:36:46.245Z,101855.78
2022-10-26T19:39:18.225Z,101854.03
2022-10-26T19:41:46.630Z,101868.16
2022-10-26T19:44:15.273Z,101863.75
2022-10-26T19:46:43.733Z,101872.56
2022-10-26T19:49:12.784Z,101882.31
2022-10-26T19:51:39.955Z,101877.91
2022-10-26T19:54:07.509Z,101877.03
2022-10-26T19:56:36.922Z,101885.88
2022-10-26T19:59:05.315Z,101883.22
2022-10-26T20:01:32.816Z,101876.13
2022-10-26T20:04:02.414Z,101892.03
2022-10-26T20:06:30.680Z,101898.22
2022-10-26T20:08:58.107Z,101897.31
2022-10-26T20:11:25.161Z,101898.22
2022-10-26T20:13:52.739Z,101899.09
2022-10-26T20:16:19.736Z,101899.09
2022-10-26T20:18:49.019Z,101902.66
2022-10-26T20:21:17.563Z,101909.69
2022-10-26T20:23:45.308Z,101904.41
2022-10-26T20:26:18.660Z,101900.88
2022-10-26T20:28:50.850Z,101907.94
2022-10-26T20:31:17.987Z,101905.28
2022-10-26T20:33:45.124Z,101914.13
2022-10-26T20:36:12.070Z,101920.28
2022-10-26T20:38:40.243Z,101915.88
2022-10-26T20:41:12.476Z,101915.88
2022-10-26T20:43:41.292Z,101917.66
2022-10-26T20:46:28.951Z,101922.97
2022-10-26T20:48:56.479Z,101919.44
2022-10-26T20:51:56.649Z,101927.38
2022-10-26T20:54:41.453Z,101923.84
2022-10-26T20:57:19.197Z,101929.16
2022-10-26T20:59:54.216Z,101934.44
2022-10-26T21:02:22.534Z,101937.06
2022-10-26T21:04:49.638Z,101935.31
2022-10-26T21:07:16.659Z,101936.19
2022-10-26T21:09:43.750Z,101936.19
2022-10-26T21:12:12.323Z,101942.38
2022-10-26T21:14:41.158Z,101937.97
2022-10-26T21:17:13.257Z,101944.16
2022-10-26T21:19:42.081Z,101941.47
2022-10-26T21:22:12.085Z,101938.84
2022-10-26T21:24:39.129Z,101940.59
2022-10-26T21:27:06.203Z,101944.13
2022-10-26T21:29:33.309Z,101937.94
2022-10-26T21:32:00.525Z,101952.06
2022-10-26T21:34:27.497Z,101950.28
2022-10-26T21:36:54.504Z,101942.34
2022-10-26T21:39:21.505Z,101943.25
2022-10-26T21:41:48.460Z,101942.34
2022-10-26T21:44:32.666Z,101950.31
2022-10-26T21:47:03.147Z,101949.41
2022-10-26T21:49:30.247Z,101954.72
2022-10-26T21:51:57.288Z,101946.75
2022-10-26T21:54:24.374Z,101957.34
2022-10-26T21:56:51.358Z,101956.47
2022-10-26T21:59:18.447Z,101957.34
2022-10-26T22:01:45.653Z,101952.94
2022-10-26T22:04:12.797Z,101960.91
2022-10-26T22:06:39.785Z,101953.84
2022-10-26T22:09:06.955Z,101948.53
2022-10-26T22:11:34.227Z,101945.00
2022-10-26T22:14:01.384Z,101945.91
2022-10-26T22:16:31.503Z,101937.06
2022-10-26T22:19:03.577Z,101953.84
2022-10-26T22:21:35.515Z,101949.41
2022-10-26T22:24:02.872Z,101945.00
2022-10-26T22:26:32.072Z,101950.28
2022-10-26T22:28:59.175Z,101948.50
2022-10-26T22:31:37.509Z,101953.84
2022-10-26T22:34:08.793Z,101947.66
2022-10-26T22:36:36.126Z,101942.34
2022-10-26T22:39:04.154Z,101936.19
2022-10-26T22:41:31.203Z,101931.75
2022-10-26T22:43:58.244Z,101930.84
2022-10-26T22:46:28.106Z,101935.25
2022-10-26T22:49:04.247Z,101937.91
2022-10-26T22:51:34.707Z,101942.31
2022-10-26T22:54:04.252Z,101930.88
2022-10-26T22:56:34.074Z,101930.84
2022-10-26T22:59:01.349Z,101946.72
2022-10-26T23:01:32.430Z,101938.78
2022-10-26T23:04:00.036Z,101946.72
2022-10-26T23:06:30.469Z,101941.44
2022-10-26T23:08:57.885Z,101945.81
2022-10-26T23:11:27.940Z,101952.03
2022-10-26T23:13:57.928Z,101952.00
2022-10-26T23:16:26.144Z,101954.69
2022-10-26T23:18:53.852Z,101952.03
2022-10-26T23:21:23.398Z,101950.25
2022-10-26T23:23:50.548Z,101952.91
2022-10-26T23:26:21.089Z,101954.66
2022-10-26T23:28:49.246Z,101951.13
2022-10-26T23:31:23.323Z,101958.19
2022-10-26T23:33:51.572Z,101963.50
2022-10-26T23:36:19.372Z,101962.63
2022-10-26T23:38:47.007Z,101956.41
2022-10-26T23:41:14.144Z,101965.22
2022-10-26T23:43:41.444Z,101963.47
2022-10-26T23:46:08.550Z,101974.06
2022-10-26T23:48:35.538Z,101964.31
2022-10-26T23:51:02.622Z,101964.31
2022-10-26T23:53:29.671Z,101964.31
2022-10-26T23:55:56.639Z,101969.63
2022-10-26T23:58:23.700Z,101973.16
